Disclaimer

Please do not use the information listed here in-flight or in-navigation, as they are not provided to us by the airports but are provided by volunteers, so they might be outdated.

Search


Regions


Airport information page

No radio frequency information is available.

Airport informations:
Latitude: 26° 52' 48.00" S
Longitude: 048° 39' 05.00" W
Elevation: 18 feet - 5 meters
Operating hours: Remarks
Operating agency: Civil government, landing fees and diplomatic clearance may be required
Timezone: UTC-3(-2DT)
Fuel: Jet A1, without icing nhibitor.

100/130 octane gasoline, leaded, MIL-L-5572F (GREEN)

Runway information:
07/25 - 5581 x 148 feet< - >1701 x 45 meters

Recent METARs:
SBNF 202000Z 05009KT 9999 SCT030 23/16 Q1018
SBNF 202000Z 05009KT 9999 SCT030 23/16 Q1018
SBNF 202100Z 04009KT 9999 BKN040 22/15 Q1019

Airport on the map: